createdAt,value
2022-11-26T00:02:26.891Z,-1.20
2022-11-26T00:04:55.554Z,-1.10
2022-11-26T00:07:26.848Z,-1.10
2022-11-26T00:09:55.497Z,-1.10
2022-11-26T00:12:22.335Z,-1.10
2022-11-26T00:14:49.644Z,-1.10
2022-11-26T00:17:17.434Z,-1.10
2022-11-26T00:19:45.868Z,-1.10
2022-11-26T00:22:29.165Z,-1.10
2022-11-26T00:24:56.781Z,-1.10
2022-11-26T00:27:26.737Z,-1.10
2022-11-26T00:29:54.072Z,-1.10
2022-11-26T00:32:26.325Z,-1.10
2022-11-26T00:34:54.010Z,-1.10
2022-11-26T00:37:28.242Z,-1.10
2022-11-26T00:39:57.290Z,-1.10
2022-11-26T00:42:24.455Z,-1.10
2022-11-26T00:44:53.176Z,-1.10
2022-11-26T00:47:20.159Z,-1.10
2022-11-26T00:49:47.078Z,-1.00
2022-11-26T00:52:35.251Z,-1.00
2022-11-26T00:55:10.790Z,-1.10
2022-11-26T00:57:37.786Z,-1.00
2022-11-26T01:00:17.904Z,-1.10
2022-11-26T01:02:45.292Z,-1.10
2022-11-26T01:05:15.188Z,-1.10
2022-11-26T01:07:43.116Z,-1.10
2022-11-26T01:10:25.355Z,-1.10
2022-11-26T01:12:53.203Z,-1.10
2022-11-26T01:15:22.621Z,-1.10
2022-11-26T01:17:49.868Z,-1.10
2022-11-26T01:20:25.515Z,-1.10
2022-11-26T01:22:54.335Z,-1.10
2022-11-26T01:25:22.354Z,-1.00
2022-11-26T01:27:50.010Z,-1.00
2022-11-26T01:30:19.789Z,-1.10
2022-11-26T01:32:48.051Z,-1.10
2022-11-26T01:35:16.353Z,-1.10
2022-11-26T01:37:44.339Z,-1.10
2022-11-26T01:40:26.060Z,-1.10
2022-11-26T01:42:59.017Z,-1.00
2022-11-26T01:45:26.329Z,-1.10
2022-11-26T01:47:53.341Z,-1.10
2022-11-26T01:50:29.486Z,-1.10
2022-11-26T01:53:19.368Z,-1.10
2022-11-26T01:55:51.550Z,-1.10
2022-11-26T01:58:26.538Z,-1.10
2022-11-26T02:00:53.725Z,-1.10
2022-11-26T02:03:20.726Z,-1.10
2022-11-26T02:05:56.280Z,-1.10
2022-11-26T02:08:25.077Z,-1.10
2022-11-26T02:10:52.907Z,-1.20
2022-11-26T02:13:20.575Z,-1.20
2022-11-26T02:16:34.008Z,-1.20
2022-11-26T02:19:34.889Z,-1.30
2022-11-26T02:22:30.636Z,-1.30
2022-11-26T02:25:12.088Z,-1.20
2022-11-26T02:28:00.225Z,-1.20
2022-11-26T02:30:31.807Z,-1.20
2022-11-26T02:33:15.640Z,-1.20
2022-11-26T02:35:54.582Z,-1.20
2022-11-26T02:38:30.559Z,-1.20
2022-11-26T02:40:57.497Z,-1.20
2022-11-26T02:43:26.109Z,-1.20
2022-11-26T02:45:58.829Z,-1.20
2022-11-26T02:48:38.525Z,-1.20
2022-11-26T02:51:11.990Z,-1.20
2022-11-26T02:53:40.292Z,-1.10
2022-11-26T02:56:16.002Z,-1.10
2022-11-26T02:58:43.453Z,-1.10
2022-11-26T03:01:14.463Z,-1.10
2022-11-26T03:03:47.585Z,-1.10
2022-11-26T03:06:16.580Z,-1.10
2022-11-26T03:08:45.533Z,-1.10
2022-11-26T03:11:12.817Z,-1.20
2022-11-26T03:13:39.723Z,-1.20
2022-11-26T03:16:06.846Z,-1.10
2022-11-26T03:18:33.763Z,-1.10
2022-11-26T03:21:00.775Z,-1.10
2022-11-26T03:23:27.670Z,-1.10
2022-11-26T03:25:54.629Z,-1.10
2022-11-26T03:28:21.603Z,-1.10
2022-11-26T03:30:51.136Z,-1.00
2022-11-26T03:33:18.098Z,-1.00
2022-11-26T03:35:45.531Z,-1.00
2022-11-26T03:38:12.476Z,-1.00
2022-11-26T03:40:39.382Z,-1.00
2022-11-26T03:43:06.354Z,-1.00
2022-11-26T03:45:33.386Z,-1.10
2022-11-26T03:48:00.318Z,-1.00
2022-11-26T03:50:27.218Z,-1.00
2022-11-26T03:52:54.165Z,-1.00
2022-11-26T03:55:21.133Z,-1.00
2022-11-26T03:57:48.051Z,-1.00
2022-11-26T04:00:15.375Z,-1.00
2022-11-26T04:02:42.375Z,-1.00
2022-11-26T04:05:09.582Z,-1.00
2022-11-26T04:07:36.663Z,-1.00
2022-11-26T04:10:04.658Z,-1.00
2022-11-26T04:12:31.687Z,-1.00
2022-11-26T04:14:58.672Z,-1.00
2022-11-26T04:17:25.613Z,-1.00
2022-11-26T04:19:52.679Z,-1.00
2022-11-26T04:22:19.614Z,-1.00
2022-11-26T04:24:46.527Z,-1.00
2022-11-26T04:27:13.475Z,-1.00
2022-11-26T04:29:40.385Z,-1.00
2022-11-26T04:32:07.432Z,-1.10
2022-11-26T04:34:34.364Z,-1.00
2022-11-26T04:37:01.256Z,-1.10
2022-11-26T04:39:28.159Z,-1.00
2022-11-26T04:41:55.095Z,-1.00
2022-11-26T04:44:22.013Z,-1.00
2022-11-26T04:46:48.917Z,-1.00
2022-11-26T04:49:15.864Z,-1.00
2022-11-26T04:51:42.829Z,-1.00
2022-11-26T04:54:12.889Z,-1.00
2022-11-26T04:56:40.232Z,-1.00
2022-11-26T04:59:07.353Z,-1.00
2022-11-26T05:01:35.405Z,-1.00
2022-11-26T05:04:02.610Z,-1.00
2022-11-26T05:06:29.517Z,-1.00
2022-11-26T05:08:56.539Z,-1.00
2022-11-26T05:11:23.580Z,-1.10
2022-11-26T05:13:50.564Z,-1.00
2022-11-26T05:16:17.600Z,-1.00
2022-11-26T05:18:44.560Z,-0.90
2022-11-26T05:21:11.544Z,-0.90
2022-11-26T05:23:38.510Z,-1.00
2022-11-26T05:26:05.542Z,-1.00
2022-11-26T05:28:32.446Z,-1.00
2022-11-26T05:31:03.521Z,-1.00
2022-11-26T05:33:31.235Z,-1.10
2022-11-26T05:35:58.211Z,-1.00
2022-11-26T05:38:25.209Z,-0.90
2022-11-26T05:40:52.148Z,-1.00
2022-11-26T05:43:19.531Z,-1.00
2022-11-26T05:45:46.492Z,-0.90
2022-11-26T05:48:13.810Z,-0.90
2022-11-26T05:50:40.742Z,-1.00
2022-11-26T05:53:07.788Z,-1.00
2022-11-26T05:55:35.530Z,-0.90
2022-11-26T05:58:02.467Z,-0.90
2022-11-26T06:00:30.046Z,-0.90
2022-11-26T06:02:57.300Z,-0.90
2022-11-26T06:05:24.354Z,-0.90
2022-11-26T06:07:51.357Z,-0.90
2022-11-26T06:10:18.715Z,-1.00
2022-11-26T06:12:45.691Z,-1.00
2022-11-26T06:15:12.755Z,-1.00
2022-11-26T06:17:39.750Z,-1.00
2022-11-26T06:20:07.300Z,-1.00
2022-11-26T06:22:38.739Z,-1.00
2022-11-26T06:25:10.082Z,-1.00
2022-11-26T06:27:37.627Z,-1.00
2022-11-26T06:30:06.596Z,-0.90
2022-11-26T06:32:33.538Z,-0.90
2022-11-26T06:35:00.571Z,-0.90
2022-11-26T06:37:27.663Z,-0.90
2022-11-26T06:39:54.833Z,-0.90
2022-11-26T06:42:21.814Z,-0.90
2022-11-26T06:44:48.805Z,-0.90
2022-11-26T06:47:16.802Z,-0.90
2022-11-26T06:49:43.748Z,-0.90
2022-11-26T06:52:10.635Z,-0.90
2022-11-26T06:54:37.794Z,-0.90
2022-11-26T06:57:07.241Z,-0.90
2022-11-26T06:59:34.187Z,-0.90
2022-11-26T07:02:01.307Z,-0.90
2022-11-26T07:04:28.319Z,-0.90
2022-11-26T07:06:55.244Z,-0.90
2022-11-26T07:09:22.178Z,-0.80
2022-11-26T07:11:50.229Z,-0.80
2022-11-26T07:14:17.177Z,-0.70
2022-11-26T07:16:44.134Z,-0.70
2022-11-26T07:19:14.153Z,-0.70
2022-11-26T07:21:41.508Z,-0.70
2022-11-26T07:24:08.507Z,-0.70
2022-11-26T07:26:35.447Z,-0.60
2022-11-26T07:29:02.446Z,-0.60
2022-11-26T07:31:29.605Z,-0.60
2022-11-26T07:33:57.558Z,-0.60
2022-11-26T07:36:27.373Z,-0.60
2022-11-26T07:38:58.999Z,-0.50
2022-11-26T07:41:27.076Z,-0.50
2022-11-26T07:43:54.449Z,-0.50
2022-11-26T07:46:24.649Z,-0.50
2022-11-26T07:48:51.769Z,-0.40
2022-11-26T07:51:20.801Z,-0.50
2022-11-26T07:53:48.151Z,-0.40
2022-11-26T07:56:15.576Z,-0.40
2022-11-26T07:58:42.810Z,-0.40
2022-11-26T08:01:12.170Z,-0.40
2022-11-26T08:03:43.971Z,-0.40
2022-11-26T08:06:13.823Z,-0.30
2022-11-26T08:08:41.539Z,-0.30
2022-11-26T08:11:17.433Z,-0.30
2022-11-26T08:13:44.861Z,-0.30
2022-11-26T08:16:13.062Z,-0.30
2022-11-26T08:18:41.845Z,-0.20
2022-11-26T08:21:08.789Z,-0.20
2022-11-26T08:23:36.027Z,-0.20
2022-11-26T08:26:22.675Z,-0.20
2022-11-26T08:28:51.677Z,-0.20
2022-11-26T08:31:19.128Z,-0.20
2022-11-26T08:33:46.576Z,-0.20
2022-11-26T08:36:13.817Z,-0.10
2022-11-26T08:38:40.757Z,-0.10
2022-11-26T08:41:11.890Z,-0.10
2022-11-26T08:44:05.174Z,0.00
2022-11-26T08:46:26.737Z,0.00
2022-11-26T08:48:56.498Z,0.00
2022-11-26T08:51:24.141Z,0.00
2022-11-26T08:53:51.125Z,0.00
2022-11-26T08:56:18.066Z,0.00
2022-11-26T08:58:45.679Z,0.10
2022-11-26T09:01:17.707Z,0.10
2022-11-26T09:03:47.661Z,0.00
2022-11-26T09:06:15.257Z,0.00
2022-11-26T09:09:01.105Z,0.10
2022-11-26T09:11:28.700Z,0.10
2022-11-26T09:13:57.670Z,0.20
2022-11-26T09:16:25.023Z,0.20
2022-11-26T09:18:52.715Z,0.30
2022-11-26T09:21:20.627Z,0.20
2022-11-26T09:23:47.733Z,0.20
2022-11-26T09:26:14.749Z,0.20
2022-11-26T09:28:41.920Z,0.20
2022-11-26T09:31:08.818Z,0.20
2022-11-26T09:33:35.738Z,0.20
2022-11-26T09:36:07.381Z,0.10
2022-11-26T09:38:35.464Z,0.20
2022-11-26T09:41:10.705Z,0.20
2022-11-26T09:43:56.444Z,0.20
2022-11-26T09:46:50.988Z,0.30
2022-11-26T09:49:26.376Z,0.30
2022-11-26T09:51:57.497Z,0.30
2022-11-26T09:54:27.821Z,0.30
2022-11-26T09:57:17.896Z,0.40
2022-11-26T09:59:47.010Z,0.40
2022-11-26T10:02:14.653Z,0.40
2022-11-26T10:04:41.972Z,0.40
2022-11-26T10:07:42.183Z,0.30
2022-11-26T10:10:25.471Z,0.30
2022-11-26T10:13:20.813Z,0.30
2022-11-26T10:16:15.413Z,0.20
2022-11-26T10:19:00.455Z,0.20
2022-11-26T10:21:57.121Z,0.20
2022-11-26T10:24:35.131Z,0.20
2022-11-26T10:27:12.800Z,0.20
2022-11-26T10:29:43.336Z,0.20
2022-11-26T10:32:24.146Z,0.20
2022-11-26T10:34:55.189Z,0.10
2022-11-26T10:37:24.756Z,0.20
2022-11-26T10:40:19.688Z,0.10
2022-11-26T10:43:24.094Z,0.20
2022-11-26T10:45:57.667Z,0.20
2022-11-26T10:48:30.142Z,0.20
2022-11-26T10:51:25.123Z,0.20
2022-11-26T10:54:05.303Z,0.20
2022-11-26T10:56:35.106Z,0.20
2022-11-26T10:59:05.940Z,0.20
2022-11-26T11:01:36.687Z,0.10
2022-11-26T11:04:24.813Z,0.10
2022-11-26T11:06:51.811Z,0.10
2022-11-26T11:09:32.568Z,0.00
2022-11-26T11:12:23.810Z,0.00
2022-11-26T11:14:51.992Z,0.00
2022-11-26T11:17:34.002Z,0.00
2022-11-26T11:20:28.563Z,-0.10
2022-11-26T11:23:11.770Z,-0.10
2022-11-26T11:25:41.475Z,-0.10
2022-11-26T11:28:20.859Z,-0.10
2022-11-26T11:31:17.655Z,-0.10
2022-11-26T11:33:44.848Z,-0.10
2022-11-26T11:36:14.667Z,-0.10
2022-11-26T11:38:50.539Z,-0.10
2022-11-26T11:41:49.000Z,-0.20
2022-11-26T11:44:24.386Z,-0.10
2022-11-26T11:47:06.515Z,-0.10
2022-11-26T11:50:07.193Z,-0.10
2022-11-26T11:52:37.147Z,-0.10
2022-11-26T11:55:13.012Z,-0.20
2022-11-26T11:57:54.793Z,-0.20
2022-11-26T12:00:36.887Z,-0.20
2022-11-26T12:03:10.779Z,-0.30
2022-11-26T12:06:15.505Z,-0.30
2022-11-26T12:08:58.043Z,-0.30
2022-11-26T12:11:55.162Z,-0.30
2022-11-26T12:14:47.733Z,-0.30
2022-11-26T12:17:22.345Z,-0.30
2022-11-26T12:20:18.138Z,-0.30
2022-11-26T12:22:53.688Z,-0.40
2022-11-26T12:25:36.599Z,-0.40
2022-11-26T12:28:17.845Z,-0.50
2022-11-26T12:31:01.498Z,-0.40
2022-11-26T12:33:43.743Z,-0.40
2022-11-26T12:36:15.533Z,-0.40
2022-11-26T12:38:57.694Z,-0.40
2022-11-26T12:41:33.996Z,-0.50
2022-11-26T12:44:19.538Z,-0.50
2022-11-26T12:47:26.718Z,-0.40
2022-11-26T12:50:11.232Z,-0.30
2022-11-26T12:52:50.234Z,-0.30
2022-11-26T12:55:19.019Z,-0.30
2022-11-26T12:58:00.255Z,-0.40
2022-11-26T13:00:36.823Z,-0.40
2022-11-26T13:03:06.620Z,-0.40
2022-11-26T13:06:04.413Z,-0.30
2022-11-26T13:08:49.876Z,-0.30
2022-11-26T13:11:26.600Z,-0.30
2022-11-26T13:14:14.671Z,-0.30
2022-11-26T13:17:04.966Z,-0.30
2022-11-26T13:19:43.894Z,-0.40
2022-11-26T13:22:32.792Z,-0.40
2022-11-26T13:25:23.728Z,-0.40
2022-11-26T13:27:59.699Z,-0.50
2022-11-26T13:30:32.520Z,-0.40
2022-11-26T13:33:18.533Z,-0.50
2022-11-26T13:36:12.770Z,-0.50
2022-11-26T13:39:18.959Z,-0.50
2022-11-26T13:42:23.260Z,-0.50
2022-11-26T13:45:16.401Z,-0.50
2022-11-26T13:47:54.955Z,-0.60
2022-11-26T13:50:42.033Z,-0.60
2022-11-26T13:53:17.005Z,-0.60
2022-11-26T13:55:54.224Z,-0.60
2022-11-26T13:58:51.618Z,-0.60
2022-11-26T14:01:33.879Z,-0.60
2022-11-26T14:04:01.507Z,-0.70
2022-11-26T14:06:28.531Z,-0.70
2022-11-26T14:08:56.355Z,-0.70
2022-11-26T14:11:41.684Z,-0.70
2022-11-26T14:14:26.616Z,-0.70
2022-11-26T14:17:02.657Z,-0.70
2022-11-26T14:19:41.567Z,-0.80
2022-11-26T14:22:11.588Z,-0.80
2022-11-26T14:24:50.859Z,-0.80
2022-11-26T14:27:28.121Z,-0.80
2022-11-26T14:30:19.709Z,-0.90
2022-11-26T14:33:11.893Z,-0.80
2022-11-26T14:35:39.959Z,-0.80
2022-11-26T14:38:23.086Z,-0.80
2022-11-26T14:40:59.151Z,-0.80
2022-11-26T14:43:26.733Z,-0.80
2022-11-26T14:46:16.112Z,-0.80
2022-11-26T14:48:48.321Z,-0.80
2022-11-26T14:51:25.399Z,-0.80
2022-11-26T14:53:53.754Z,-0.80
2022-11-26T14:56:23.797Z,-0.80
2022-11-26T14:58:56.291Z,-0.80
2022-11-26T15:01:27.436Z,-0.80
2022-11-26T15:04:00.843Z,-0.80
2022-11-26T15:06:38.886Z,-0.80
2022-11-26T15:09:15.277Z,-0.70
2022-11-26T15:11:50.386Z,-0.80
2022-11-26T15:14:29.965Z,-0.80
2022-11-26T15:17:00.334Z,-0.80
2022-11-26T15:19:30.882Z,-0.80
2022-11-26T15:21:58.230Z,-0.80
2022-11-26T15:24:25.213Z,-0.80
2022-11-26T15:26:52.205Z,-0.80
2022-11-26T15:29:29.593Z,-0.90
2022-11-26T15:31:56.685Z,-0.90
2022-11-26T15:34:24.745Z,-0.90
2022-11-26T15:36:51.702Z,-0.90
2022-11-26T15:39:30.193Z,-1.00
2022-11-26T15:42:20.275Z,-1.00
2022-11-26T15:44:49.687Z,-1.00
2022-11-26T15:47:20.703Z,-1.00
2022-11-26T15:49:52.192Z,-1.00
2022-11-26T15:52:22.997Z,-1.00
2022-11-26T15:55:12.578Z,-1.00
2022-11-26T15:57:42.212Z,-1.00
2022-11-26T16:00:33.059Z,-1.00
2022-11-26T16:03:00.285Z,-1.00
2022-11-26T16:05:34.682Z,-1.00
2022-11-26T16:08:22.752Z,-1.00
2022-11-26T16:11:07.430Z,-1.00
2022-11-26T16:13:35.856Z,-1.00
2022-11-26T16:16:23.826Z,-1.10
2022-11-26T16:18:56.080Z,-1.10
2022-11-26T16:21:28.930Z,-1.10
2022-11-26T16:24:33.760Z,-1.10
2022-11-26T16:27:02.472Z,-1.10
2022-11-26T16:29:30.197Z,-1.10
2022-11-26T16:31:57.361Z,-1.10
2022-11-26T16:34:27.328Z,-1.20
2022-11-26T16:37:16.907Z,-1.20
2022-11-26T16:39:43.779Z,-1.30
2022-11-26T16:42:22.616Z,-1.30
2022-11-26T16:44:50.466Z,-1.30
2022-11-26T16:47:39.510Z,-1.30
2022-11-26T16:50:14.793Z,-1.30
2022-11-26T16:52:41.879Z,-1.30
2022-11-26T16:55:13.858Z,-1.40
2022-11-26T16:57:41.776Z,-1.50
2022-11-26T17:00:16.526Z,-1.50
2022-11-26T17:02:43.791Z,-1.50
2022-11-26T17:05:11.631Z,-1.60
2022-11-26T17:07:40.477Z,-1.70
2022-11-26T17:10:11.102Z,-1.80
2022-11-26T17:12:37.998Z,-1.80
2022-11-26T17:15:05.320Z,-1.90
2022-11-26T17:17:32.238Z,-2.00
2022-11-26T17:19:59.162Z,-2.00
2022-11-26T17:22:26.087Z,-2.00
2022-11-26T17:24:53.095Z,-2.10
2022-11-26T17:27:22.984Z,-2.20
2022-11-26T17:29:50.093Z,-2.30
2022-11-26T17:32:19.524Z,-2.30
2022-11-26T17:34:47.154Z,-2.40
2022-11-26T17:37:28.770Z,-2.40
2022-11-26T17:39:57.138Z,-2.40
2022-11-26T17:42:25.050Z,-2.40
2022-11-26T17:44:54.355Z,-2.50
2022-11-26T17:47:24.592Z,-2.40
2022-11-26T17:49:52.360Z,-2.40
2022-11-26T17:52:19.715Z,-2.40
2022-11-26T17:54:47.105Z,-2.40
2022-11-26T17:57:16.536Z,-2.40
2022-11-26T17:59:43.813Z,-2.40
2022-11-26T18:02:11.850Z,-2.30
2022-11-26T18:04:38.869Z,-2.30
2022-11-26T18:07:12.268Z,-2.30
2022-11-26T18:09:39.911Z,-2.30
2022-11-26T18:12:08.561Z,-2.20
2022-11-26T18:14:40.280Z,-2.10
2022-11-26T18:17:09.967Z,-2.10
2022-11-26T18:19:43.204Z,-2.00
2022-11-26T18:22:14.252Z,-2.00
2022-11-26T18:24:41.225Z,-1.90
2022-11-26T18:27:08.210Z,-1.90
2022-11-26T18:29:35.994Z,-1.90
2022-11-26T18:32:02.972Z,-1.90
2022-11-26T18:34:29.862Z,-1.90
2022-11-26T18:36:56.827Z,-1.90
2022-11-26T18:39:23.797Z,-1.90
2022-11-26T18:41:51.291Z,-1.90
2022-11-26T18:44:19.474Z,-1.80
2022-11-26T18:46:46.438Z,-1.80
2022-11-26T18:49:13.376Z,-1.80
2022-11-26T18:51:40.330Z,-1.80
2022-11-26T18:54:09.735Z,-1.80
2022-11-26T18:56:37.017Z,-1.80
2022-11-26T18:59:04.002Z,-1.80
2022-11-26T19:01:32.157Z,-1.70
2022-11-26T19:03:59.853Z,-1.70
2022-11-26T19:06:29.249Z,-1.70
2022-11-26T19:09:06.254Z,-1.70
2022-11-26T19:11:34.051Z,-1.70
2022-11-26T19:14:01.221Z,-1.70
2022-11-26T19:16:28.722Z,-1.80
2022-11-26T19:18:55.792Z,-1.70
2022-11-26T19:21:26.842Z,-1.70
2022-11-26T19:23:55.541Z,-1.70
2022-11-26T19:26:23.487Z,-1.70
2022-11-26T19:28:51.495Z,-1.70
2022-11-26T19:31:21.055Z,-1.70
2022-11-26T19:33:52.304Z,-1.70
2022-11-26T19:36:19.431Z,-1.70
2022-11-26T19:38:46.361Z,-1.70
2022-11-26T19:41:14.019Z,-1.70
2022-11-26T19:43:42.659Z,-1.80
2022-11-26T19:46:11.204Z,-1.80
2022-11-26T19:48:40.491Z,-1.80
2022-11-26T19:51:09.035Z,-1.70
2022-11-26T19:53:36.670Z,-1.70
2022-11-26T19:56:28.149Z,-1.70
2022-11-26T19:58:57.875Z,-1.70
2022-11-26T20:01:26.626Z,-1.70
2022-11-26T20:03:53.588Z,-1.60
2022-11-26T20:06:26.853Z,-1.60
2022-11-26T20:08:54.146Z,-1.70
2022-11-26T20:11:21.498Z,-1.70
2022-11-26T20:13:49.569Z,-1.70
2022-11-26T20:16:19.459Z,-1.70
2022-11-26T20:18:47.107Z,-1.70
2022-11-26T20:21:26.179Z,-1.70
2022-11-26T20:23:55.044Z,-1.70
2022-11-26T20:26:34.338Z,-1.70
2022-11-26T20:29:04.668Z,-1.70
2022-11-26T20:31:32.708Z,-1.70
2022-11-26T20:34:03.116Z,-1.70
2022-11-26T20:36:30.719Z,-1.70
2022-11-26T20:39:00.210Z,-1.70
2022-11-26T20:41:27.580Z,-1.70
2022-11-26T20:43:59.102Z,-1.70
2022-11-26T20:46:27.656Z,-1.70
2022-11-26T20:48:54.887Z,-1.80
2022-11-26T20:51:22.510Z,-1.70
2022-11-26T20:53:50.797Z,-1.70
2022-11-26T20:56:19.752Z,-1.70
2022-11-26T20:58:47.143Z,-1.70
2022-11-26T21:01:19.366Z,-1.70
2022-11-26T21:03:46.842Z,-1.70
2022-11-26T21:06:14.904Z,-1.80
2022-11-26T21:08:42.725Z,-1.80
2022-11-26T21:11:10.948Z,-1.70
2022-11-26T21:13:39.284Z,-1.80
2022-11-26T21:16:08.387Z,-1.80
2022-11-26T21:18:35.408Z,-1.80
2022-11-26T21:21:11.998Z,-1.80
2022-11-26T21:23:40.085Z,-1.90
2022-11-26T21:26:26.340Z,-1.80
2022-11-26T21:29:00.570Z,-1.80
2022-11-26T21:31:29.444Z,-1.80
2022-11-26T21:34:01.055Z,-1.90
2022-11-26T21:36:29.712Z,-1.80
2022-11-26T21:38:56.968Z,-1.90
2022-11-26T21:41:24.726Z,-1.80
2022-11-26T21:43:52.197Z,-1.80
2022-11-26T21:46:25.076Z,-1.80
2022-11-26T21:48:56.638Z,-1.80
2022-11-26T21:51:26.270Z,-1.80
2022-11-26T21:53:57.824Z,-1.90
2022-11-26T21:56:30.233Z,-1.90
2022-11-26T21:58:58.765Z,-2.00
2022-11-26T22:01:31.717Z,-2.00
2022-11-26T22:04:01.640Z,-2.00
2022-11-26T22:06:28.730Z,-1.90
2022-11-26T22:08:55.935Z,-1.90
2022-11-26T22:11:25.335Z,-1.90
2022-11-26T22:13:52.735Z,-1.90
2022-11-26T22:16:21.516Z,-1.90
2022-11-26T22:18:49.135Z,-2.00
2022-11-26T22:21:25.235Z,-2.00
2022-11-26T22:23:53.111Z,-2.00
2022-11-26T22:26:21.055Z,-2.00
2022-11-26T22:28:49.786Z,-2.00
2022-11-26T22:31:29.272Z,-2.00
2022-11-26T22:33:58.592Z,-2.10
2022-11-26T22:36:25.773Z,-2.10
2022-11-26T22:38:52.965Z,-2.10
2022-11-26T22:41:20.087Z,-2.10
2022-11-26T22:43:47.223Z,-2.10
2022-11-26T22:46:17.165Z,-2.10
2022-11-26T22:48:48.391Z,-2.10
2022-11-26T22:51:15.367Z,-2.10
2022-11-26T22:53:42.298Z,-2.10
2022-11-26T22:56:09.387Z,-2.10
2022-11-26T22:58:36.411Z,-2.10
2022-11-26T23:01:08.832Z,-2.10
2022-11-26T23:03:37.712Z,-2.10
2022-11-26T23:06:09.182Z,-2.20
2022-11-26T23:08:37.777Z,-2.20
2022-11-26T23:11:15.063Z,-2.20
2022-11-26T23:13:43.495Z,-2.20
2022-11-26T23:16:11.218Z,-2.20
2022-11-26T23:18:38.995Z,-2.20
2022-11-26T23:21:08.854Z,-2.20
2022-11-26T23:23:37.468Z,-2.20
2022-11-26T23:26:05.802Z,-2.20
2022-11-26T23:28:34.216Z,-2.10
2022-11-26T23:31:02.670Z,-2.20
2022-11-26T23:33:29.795Z,-2.20
2022-11-26T23:35:57.225Z,-2.10
2022-11-26T23:38:24.909Z,-2.20
2022-11-26T23:40:56.498Z,-2.10
2022-11-26T23:43:24.744Z,-2.10
2022-11-26T23:45:51.849Z,-2.10
2022-11-26T23:48:18.810Z,-2.10
2022-11-26T23:50:45.751Z,-2.10
2022-11-26T23:53:12.677Z,-2.20
2022-11-26T23:55:39.593Z,-2.20
2022-11-26T23:58:06.560Z,-2.20
